sensor_id;sensor_type;location;lat;lon;timestamp;P1;durP1;ratioP1;P2;durP2;ratioP2
61360;SDS011;47232;47.506;18.936;2023-08-01T01:22:52;4.20;;;2.10;;
61360;SDS011;47232;47.506;18.936;2023-08-01T01:26:18;3.70;;;2.10;;
61360;SDS011;47232;47.506;18.936;2023-08-01T01:29:28;4.00;;;2.20;;
61360;SDS011;47232;47.506;18.936;2023-08-01T01:32:37;4.10;;;1.90;;
61360;SDS011;47232;47.506;18.936;2023-08-01T01:35:44;4.50;;;2.00;;
61360;SDS011;47232;47.506;18.936;2023-08-01T01:38:54;3.10;;;2.00;;
61360;SDS011;47232;47.506;18.936;2023-08-01T01:42:00;3.40;;;2.20;;
61360;SDS011;47232;47.506;18.936;2023-08-01T01:45:26;4.90;;;2.20;;
61360;SDS011;47232;47.506;18.936;2023-08-01T01:48:52;4.20;;;2.30;;
61360;SDS011;47232;47.506;18.936;2023-08-01T01:52:17;3.60;;;2.20;;
61360;SDS011;47232;47.506;18.936;2023-08-01T01:55:43;3.30;;;2.40;;
61360;SDS011;47232;47.506;18.936;2023-08-01T01:58:54;3.10;;;2.30;;
61360;SDS011;47232;47.506;18.936;2023-08-01T02:01:43;3.30;;;2.10;;
61360;SDS011;47232;47.506;18.936;2023-08-01T02:04:49;3.50;;;2.00;;
61360;SDS011;47232;47.506;18.936;2023-08-01T02:07:58;3.90;;;2.10;;
61360;SDS011;47232;47.506;18.936;2023-08-01T02:11:20;3.00;;;2.10;;
61360;SDS011;47232;47.506;18.936;2023-08-01T02:14:46;4.00;;;2.30;;
61360;SDS011;47232;47.506;18.936;2023-08-01T02:18:07;4.70;;;2.40;;
61360;SDS011;47232;47.506;18.936;2023-08-01T02:21:34;4.00;;;2.30;;
61360;SDS011;47232;47.506;18.936;2023-08-01T02:24:59;3.60;;;2.10;;
61360;SDS011;47232;47.506;18.936;2023-08-01T02:28:25;3.00;;;2.10;;
61360;SDS011;47232;47.506;18.936;2023-08-01T02:31:39;3.70;;;2.60;;
61360;SDS011;47232;47.506;18.936;2023-08-01T02:35:04;4.60;;;2.40;;
61360;SDS011;47232;47.506;18.936;2023-08-01T02:38:30;3.20;;;2.20;;
61360;SDS011;47232;47.506;18.936;2023-08-01T02:41:56;3.20;;;2.30;;
61360;SDS011;47232;47.506;18.936;2023-08-01T02:44:38;3.30;;;2.20;;
61360;SDS011;47232;47.506;18.936;2023-08-01T02:47:52;4.00;;;1.90;;
61360;SDS011;47232;47.506;18.936;2023-08-01T02:51:18;4.00;;;2.20;;
61360;SDS011;47232;47.506;18.936;2023-08-01T02:54:44;4.10;;;2.60;;
61360;SDS011;47232;47.506;18.936;2023-08-01T02:58:04;4.20;;;2.50;;
61360;SDS011;47232;47.506;18.936;2023-08-01T03:01:30;3.60;;;2.30;;
61360;SDS011;47232;47.506;18.936;2023-08-01T03:04:56;4.60;;;2.20;;
61360;SDS011;47232;47.506;18.936;2023-08-01T03:08:06;3.60;;;2.30;;
61360;SDS011;47232;47.506;18.936;2023-08-01T03:10:53;3.40;;;2.20;;
61360;SDS011;47232;47.506;18.936;2023-08-01T03:14:01;3.40;;;2.00;;
61360;SDS011;47232;47.506;18.936;2023-08-01T03:17:26;3.80;;;2.20;;
61360;SDS011;47232;47.506;18.936;2023-08-01T03:20:32;3.60;;;2.40;;
61360;SDS011;47232;47.506;18.936;2023-08-01T03:26:06;3.00;;;2.00;;
61360;SDS011;47232;47.506;18.936;2023-08-01T03:28:37;4.10;;;2.40;;
61360;SDS011;47232;47.506;18.936;2023-08-01T03:31:02;4.20;;;2.40;;
61360;SDS011;47232;47.506;18.936;2023-08-01T03:34:08;3.70;;;2.20;;
61360;SDS011;47232;47.506;18.936;2023-08-01T03:36:41;5.00;;;2.60;;
61360;SDS011;47232;47.506;18.936;2023-08-01T03:40:07;3.10;;;2.10;;
61360;SDS011;47232;47.506;18.936;2023-08-01T03:43:13;3.90;;;2.20;;
61360;SDS011;47232;47.506;18.936;2023-08-01T03:46:39;3.60;;;2.30;;
61360;SDS011;47232;47.506;18.936;2023-08-01T03:49:48;3.50;;;2.00;;
61360;SDS011;47232;47.506;18.936;2023-08-01T03:53:01;4.40;;;2.20;;
61360;SDS011;47232;47.506;18.936;2023-08-01T03:56:07;3.80;;;2.20;;
61360;SDS011;47232;47.506;18.936;2023-08-01T03:59:33;3.00;;;2.20;;
61360;SDS011;47232;47.506;18.936;2023-08-01T04:02:59;3.50;;;2.20;;
61360;SDS011;47232;47.506;18.936;2023-08-01T04:06:25;2.90;;;2.00;;
61360;SDS011;47232;47.506;18.936;2023-08-01T04:09:51;4.20;;;2.30;;
61360;SDS011;47232;47.506;18.936;2023-08-01T04:12:58;3.50;;;2.20;;
61360;SDS011;47232;47.506;18.936;2023-08-01T04:16:04;3.90;;;2.30;;
61360;SDS011;47232;47.506;18.936;2023-08-01T04:19:29;3.70;;;2.10;;
61360;SDS011;47232;47.506;18.936;2023-08-01T04:22:55;3.90;;;2.10;;
61360;SDS011;47232;47.506;18.936;2023-08-01T04:26:20;4.20;;;2.20;;
61360;SDS011;47232;47.506;18.936;2023-08-01T04:29:47;3.60;;;2.20;;
61360;SDS011;47232;47.506;18.936;2023-08-01T04:33:13;5.20;;;2.30;;
61360;SDS011;47232;47.506;18.936;2023-08-01T04:36:38;3.30;;;2.10;;
61360;SDS011;47232;47.506;18.936;2023-08-01T04:40:04;4.40;;;2.30;;
61360;SDS011;47232;47.506;18.936;2023-08-01T04:43:32;3.60;;;2.20;;
61360;SDS011;47232;47.506;18.936;2023-08-01T04:46:56;4.00;;;2.30;;
61360;SDS011;47232;47.506;18.936;2023-08-01T04:50:02;4.10;;;2.20;;
61360;SDS011;47232;47.506;18.936;2023-08-01T04:53:27;4.40;;;2.30;;
61360;SDS011;47232;47.506;18.936;2023-08-01T04:56:41;3.20;;;2.00;;
61360;SDS011;47232;47.506;18.936;2023-08-01T05:00:07;3.50;;;2.20;;
61360;SDS011;47232;47.506;18.936;2023-08-01T05:03:32;3.90;;;2.30;;
61360;SDS011;47232;47.506;18.936;2023-08-01T05:06:39;3.50;;;2.30;;
61360;SDS011;47232;47.506;18.936;2023-08-01T05:10:09;5.20;;;2.60;;
61360;SDS011;47232;47.506;18.936;2023-08-01T05:13:34;3.80;;;2.30;;
61360;SDS011;47232;47.506;18.936;2023-08-01T05:17:13;4.60;;;2.30;;
61360;SDS011;47232;47.506;18.936;2023-08-01T05:48:37;5.00;;;2.70;;
61360;SDS011;47232;47.506;18.936;2023-08-01T07:16:16;5.60;;;2.90;;
61360;SDS011;47232;47.506;18.936;2023-08-01T07:19:17;5.40;;;2.90;;
61360;SDS011;47232;47.506;18.936;2023-08-01T09:29:22;6.20;;;3.10;;
61360;SDS011;47232;47.506;18.936;2023-08-01T10:06:24;5.40;;;3.10;;
61360;SDS011;47232;47.506;18.936;2023-08-01T10:52:15;4.30;;;2.50;;
61360;SDS011;47232;47.506;18.936;2023-08-01T11:58:56;3.30;;;2.30;;
61360;SDS011;47232;47.506;18.936;2023-08-01T12:14:53;4.00;;;2.70;;
61360;SDS011;47232;47.506;18.936;2023-08-01T13:14:45;3.70;;;2.20;;
61360;SDS011;47232;47.506;18.936;2023-08-01T13:58:52;4.20;;;2.40;;
61360;SDS011;47232;47.506;18.936;2023-08-01T14:12:56;4.20;;;2.20;;
61360;SDS011;47232;47.506;18.936;2023-08-01T15:10:55;3.00;;;2.00;;
61360;SDS011;47232;47.506;18.936;2023-08-01T15:32:43;4.90;;;3.20;;
61360;SDS011;47232;47.506;18.936;2023-08-01T15:56:48;4.30;;;2.90;;
61360;SDS011;47232;47.506;18.936;2023-08-01T17:04:18;1.90;;;1.10;;
61360;SDS011;47232;47.506;18.936;2023-08-01T17:07:45;1.80;;;1.20;;
61360;SDS011;47232;47.506;18.936;2023-08-01T17:47:26;3.10;;;1.00;;
61360;SDS011;47232;47.506;18.936;2023-08-01T18:07:48;2.70;;;1.40;;
61360;SDS011;47232;47.506;18.936;2023-08-01T18:11:16;2.00;;;1.40;;
61360;SDS011;47232;47.506;18.936;2023-08-01T18:33:34;2.70;;;1.40;;
61360;SDS011;47232;47.506;18.936;2023-08-01T18:52:06;2.90;;;1.60;;
61360;SDS011;47232;47.506;18.936;2023-08-01T19:44:21;1.90;;;1.30;;
61360;SDS011;47232;47.506;18.936;2023-08-01T20:09:42;3.90;;;1.60;;
61360;SDS011;47232;47.506;18.936;2023-08-01T23:13:42;4.00;;;2.50;;
61360;SDS011;47232;47.506;18.936;2023-08-01T23:17:09;5.30;;;2.40;;
61360;SDS011;47232;47.506;18.936;2023-08-01T23:20:37;3.20;;;2.10;;
61360;SDS011;47232;47.506;18.936;2023-08-01T23:24:03;3.90;;;2.20;;
61360;SDS011;47232;47.506;18.936;2023-08-01T23:27:13;3.90;;;2.30;;
61360;SDS011;47232;47.506;18.936;2023-08-01T23:30:38;4.80;;;2.50;;
61360;SDS011;47232;47.506;18.936;2023-08-01T23:34:04;4.10;;;2.40;;
61360;SDS011;47232;47.506;18.936;2023-08-01T23:37:30;4.00;;;2.60;;
61360;SDS011;47232;47.506;18.936;2023-08-01T23:40:57;3.70;;;2.40;;
61360;SDS011;47232;47.506;18.936;2023-08-01T23:44:23;3.90;;;2.20;;
61360;SDS011;47232;47.506;18.936;2023-08-01T23:47:49;3.80;;;2.40;;
61360;SDS011;47232;47.506;18.936;2023-08-01T23:51:15;3.20;;;2.00;;
61360;SDS011;47232;47.506;18.936;2023-08-01T23:54:40;3.70;;;2.20;;
61360;SDS011;47232;47.506;18.936;2023-08-01T23:58:06;3.90;;;2.00;;
